Time;durP1;ratioP1;P1;durP2;ratioP2;P2;SDS_P1;SDS_P2;PMS_P1;PMS_P2;Temp;Humidity;BMP_temperature;BMP_pressure;BME280_temperature;BME280_humidity;BME280_pressure;Samples;Min_cycle;Max_cycle;Signal;HPM_P1;HPM_P2
2022/11/21 00:00:49;;;;;;;11.37;3.50;;;7.80;99.90;;;;;;4995194;28;20171;-70
2022/11/21 00:03:14;;;;;;;11.47;3.60;;;7.90;99.90;;;;;;4993484;28;20182;-71
2022/11/21 00:05:45;;;;;;;10.70;3.30;;;7.80;99.90;;;;;;4993565;28;20211;-70
2022/11/21 00:08:13;;;;;;;12.17;3.70;;;7.70;99.90;;;;;;4994812;28;20272;-71
2022/11/21 00:10:39;;;;;;;11.43;3.57;;;7.70;99.90;;;;;;4995086;28;20175;-70
2022/11/21 00:13:07;;;;;;;9.50;4.10;;;7.70;99.90;;;;;;4994721;28;20254;-71
2022/11/21 00:15:34;;;;;;;10.50;3.57;;;7.60;99.90;;;;;;4995090;28;20181;-71
2022/11/21 00:18:04;;;;;;;9.37;3.70;;;7.50;99.90;;;;;;4994894;28;20175;-70
2022/11/21 00:20:30;;;;;;;9.83;4.10;;;7.60;99.90;;;;;;4994610;28;20214;-70
2022/11/21 00:22:59;;;;;;;8.90;4.33;;;7.50;99.90;;;;;;4994615;28;20179;-71
2022/11/21 00:25:24;;;;;;;8.13;4.10;;;7.50;99.90;;;;;;4994482;28;20211;-72
2022/11/21 00:27:51;;;;;;;12.70;4.60;;;7.40;99.90;;;;;;4994654;28;20175;-69
2022/11/21 00:30:17;;;;;;;9.97;4.63;;;7.40;99.90;;;;;;4994520;28;20248;-71
2022/11/21 00:32:45;;;;;;;10.07;4.30;;;7.40;99.90;;;;;;4994565;28;20175;-71
2022/11/21 00:35:11;;;;;;;8.67;3.83;;;7.40;99.90;;;;;;4993076;28;20539;-70
2022/11/21 00:37:37;;;;;;;9.80;4.37;;;7.50;99.90;;;;;;4993817;28;20331;-71
2022/11/21 00:40:06;;;;;;;12.23;4.63;;;7.50;99.90;;;;;;4993952;28;20183;-70
2022/11/21 00:42:32;;;;;;;12.77;4.27;;;7.50;99.90;;;;;;4993245;28;20223;-71
2022/11/21 00:44:58;;;;;;;9.47;4.47;;;7.50;99.90;;;;;;4993175;28;20612;-70
2022/11/21 00:47:23;;;;;;;11.23;4.03;;;7.50;99.90;;;;;;4994338;28;20352;-70
2022/11/21 00:49:49;;;;;;;10.97;4.33;;;7.50;99.90;;;;;;4994080;28;20575;-69
2022/11/21 00:52:16;;;;;;;9.73;4.37;;;7.40;99.90;;;;;;4993760;28;20190;-70
2022/11/21 00:54:42;;;;;;;9.13;4.20;;;7.40;99.90;;;;;;4994215;28;20226;-70
2022/11/21 00:57:07;;;;;;;9.27;4.00;;;7.40;99.90;;;;;;4994036;28;20167;-70
2022/11/21 00:59:33;;;;;;;10.97;4.40;;;7.40;99.90;;;;;;4994017;28;20179;-70
2022/11/21 01:01:59;;;;;;;8.00;4.30;;;7.40;99.90;;;;;;4993889;28;20655;-71
2022/11/21 01:04:24;;;;;;;11.63;4.00;;;7.40;99.90;;;;;;4993819;28;20179;-70
2022/11/21 01:06:50;;;;;;;10.80;4.53;;;7.50;99.90;;;;;;4993729;28;20183;-70
2022/11/21 01:09:18;;;;;;;10.47;5.00;;;7.50;99.90;;;;;;4993750;28;20552;-70
2022/11/21 01:11:44;;;;;;;11.33;4.17;;;7.60;99.90;;;;;;4993702;28;20183;-69
2022/11/21 01:14:09;;;;;;;9.07;4.53;;;7.60;99.90;;;;;;4993676;28;20183;-68
2022/11/21 01:16:35;;;;;;;7.97;3.97;;;7.70;99.90;;;;;;4993863;28;20262;-70
2022/11/21 01:19:00;;;;;;;11.27;4.10;;;7.60;99.90;;;;;;4993924;28;20194;-70
2022/11/21 01:21:29;;;;;;;7.67;4.40;;;7.60;99.90;;;;;;4993230;28;20269;-70
2022/11/21 01:23:57;;;;;;;11.50;4.10;;;7.50;99.90;;;;;;4993794;28;20167;-70
2022/11/21 01:26:25;;;;;;;9.23;3.60;;;7.40;99.90;;;;;;4993700;28;20222;-70
2022/11/21 01:28:51;;;;;;;9.80;4.23;;;7.30;99.90;;;;;;4993673;28;20620;-69
2022/11/21 01:31:22;;;;;;;9.73;3.57;;;7.20;99.90;;;;;;4993739;28;20186;-70
2022/11/21 01:33:48;;;;;;;12.27;3.70;;;7.20;99.90;;;;;;4993348;28;20179;-70
2022/11/21 01:36:25;;;;;;;13.60;3.80;;;7.10;99.90;;;;;;4993647;28;20171;-70
2022/11/21 01:38:56;;;;;;;9.03;3.70;;;7.10;99.90;;;;;;4993860;28;20210;-70
2022/11/21 01:41:30;;;;;;;8.70;3.93;;;7.20;99.90;;;;;;4993516;28;20171;-70
2022/11/21 01:43:56;;;;;;;11.70;3.40;;;7.20;99.90;;;;;;4993783;28;20663;-70
2022/11/21 01:46:23;;;;;;;10.80;3.77;;;7.20;99.90;;;;;;4993595;28;20261;-70
2022/11/21 01:49:10;;;;;;;9.20;3.90;;;7.20;99.90;;;;;;4993218;28;20176;-70
2022/11/21 01:51:48;;;;;;;10.40;3.97;;;7.30;99.90;;;;;;4994113;28;20176;-69
2022/11/21 01:54:27;;;;;;;9.77;4.00;;;7.30;99.90;;;;;;4996277;28;20613;-70
2022/11/21 01:57:00;;;;;;;9.10;3.93;;;7.30;99.90;;;;;;4997578;28;20238;-68
2022/11/21 01:59:34;;;;;;;12.17;3.70;;;7.40;99.90;;;;;;4997435;28;20175;-70
2022/11/21 02:02:02;;;;;;;11.37;3.80;;;7.40;99.90;;;;;;4997298;28;20229;-68
2022/11/21 02:04:33;;;;;;;11.47;4.00;;;7.50;99.90;;;;;;4996805;28;20171;-69
2022/11/21 02:07:03;;;;;;;12.93;3.73;;;7.60;99.90;;;;;;4996109;28;20175;-69
2022/11/21 02:09:30;;;;;;;11.53;3.97;;;7.50;99.90;;;;;;4997206;28;20655;-69
2022/11/21 02:12:11;;;;;;;11.50;3.87;;;7.50;99.90;;;;;;4997127;28;20171;-68
2022/11/21 02:14:39;;;;;;;8.17;3.53;;;7.50;99.90;;;;;;4996942;28;20163;-69
2022/11/21 02:17:06;;;;;;;10.30;3.53;;;7.50;99.90;;;;;;4997140;28;20572;-69
2022/11/21 02:19:47;;;;;;;12.83;4.00;;;7.50;99.90;;;;;;4996771;28;20167;-69
2022/11/21 02:22:37;;;;;;;9.73;3.97;;;7.40;99.90;;;;;;4997097;28;20307;-68
2022/11/21 02:25:06;;;;;;;8.87;3.80;;;7.40;99.90;;;;;;4996720;28;20307;-69
2022/11/21 02:27:31;;;;;;;9.23;4.00;;;7.40;99.90;;;;;;4996770;28;20214;-70
2022/11/21 02:29:57;;;;;;;7.60;3.43;;;7.40;99.90;;;;;;4996726;28;20179;-69
2022/11/21 02:32:30;;;;;;;10.80;3.80;;;7.40;99.90;;;;;;4996499;28;20171;-70
2022/11/21 02:34:58;;;;;;;12.93;3.83;;;7.40;99.90;;;;;;4996564;28;20189;-70
2022/11/21 02:37:24;;;;;;;6.13;3.07;;;7.40;99.90;;;;;;4996499;28;20227;-70
2022/11/21 02:39:50;;;;;;;5.57;2.90;;;7.40;99.90;;;;;;4995136;28;20269;-70
2022/11/21 02:42:37;;;;;;;8.90;3.20;;;7.30;99.90;;;;;;4996390;28;20210;-70
2022/11/21 02:45:19;;;;;;;8.13;3.50;;;7.30;99.90;;;;;;4996374;28;20210;-70
2022/11/21 02:47:51;;;;;;;11.67;3.20;;;7.20;99.90;;;;;;4996156;28;20190;-70
2022/11/21 02:50:26;;;;;;;7.17;3.10;;;7.30;99.90;;;;;;4996250;28;20587;-69
2022/11/21 02:52:51;;;;;;;8.77;3.33;;;7.30;99.90;;;;;;4996510;28;20615;-69
2022/11/21 02:55:24;;;;;;;7.00;2.77;;;7.20;99.90;;;;;;4995064;28;20175;-69
2022/11/21 02:57:50;;;;;;;4.97;2.70;;;7.20;99.90;;;;;;4996423;28;20186;-70
2022/11/21 03:00:16;;;;;;;9.73;3.00;;;7.20;99.90;;;;;;4996173;28;20171;-70
2022/11/21 03:02:42;;;;;;;10.33;2.80;;;7.20;99.90;;;;;;4995212;28;20670;-70
2022/11/21 03:05:09;;;;;;;4.93;2.63;;;7.20;99.90;;;;;;4996114;28;20214;-70
2022/11/21 03:07:38;;;;;;;6.03;2.37;;;7.20;99.90;;;;;;4996199;28;20203;-70
2022/11/21 03:10:04;;;;;;;7.40;2.90;;;7.20;99.90;;;;;;4995959;28;20197;-71
2022/11/21 03:12:30;;;;;;;6.70;2.50;;;7.10;99.90;;;;;;4996039;28;20642;-70
2022/11/21 03:14:55;;;;;;;7.53;2.97;;;7.10;99.90;;;;;;4995831;28;20175;-70
2022/11/21 03:17:21;;;;;;;10.30;2.87;;;7.10;99.90;;;;;;4995543;28;20639;-70
2022/11/21 03:19:46;;;;;;;3.47;2.67;;;7.10;99.90;;;;;;4996147;28;20174;-72
2022/11/21 03:22:13;;;;;;;6.33;2.50;;;7.10;99.90;;;;;;4994599;28;20181;-70
2022/11/21 03:24:39;;;;;;;7.50;2.70;;;7.10;99.90;;;;;;4995770;28;20246;-71
2022/11/21 03:27:07;;;;;;;5.33;2.60;;;7.10;99.90;;;;;;4995847;28;20721;-70
2022/11/21 03:29:32;;;;;;;7.90;2.83;;;7.10;99.90;;;;;;4995556;28;20163;-70
2022/11/21 03:32:01;;;;;;;3.60;2.90;;;7.20;99.90;;;;;;4995263;28;20524;-70
2022/11/21 03:34:26;;;;;;;9.37;3.20;;;7.20;99.90;;;;;;4995619;28;20254;-71
2022/11/21 03:36:52;;;;;;;9.50;2.77;;;7.10;99.90;;;;;;4995338;28;20226;-71
2022/11/21 03:39:24;;;;;;;5.43;2.70;;;7.10;99.90;;;;;;4995498;28;20174;-71
2022/11/21 03:41:49;;;;;;;10.17;2.80;;;7.10;99.90;;;;;;4995399;28;20582;-70
2022/11/21 03:44:15;;;;;;;8.73;2.80;;;7.10;99.90;;;;;;4995139;28;20179;-70
2022/11/21 03:46:43;;;;;;;4.87;2.43;;;7.10;99.90;;;;;;4995330;28;20591;-71
2022/11/21 03:49:10;;;;;;;3.93;2.50;;;7.00;99.90;;;;;;4995298;28;20191;-71
2022/11/21 03:51:36;;;;;;;3.10;2.70;;;7.10;99.90;;;;;;4995265;28;20175;-70
2022/11/21 03:54:03;;;;;;;5.67;2.60;;;7.00;99.90;;;;;;4995326;28;20185;-70
2022/11/21 03:56:28;;;;;;;8.43;2.83;;;7.00;99.90;;;;;;4993906;28;20179;-70
2022/11/21 03:58:54;;;;;;;5.80;2.57;;;7.10;99.90;;;;;;4994614;28;20178;-70
2022/11/21 04:01:20;;;;;;;5.40;2.73;;;7.00;99.90;;;;;;4995046;28;20230;-69
2022/11/21 04:03:46;;;;;;;6.57;2.47;;;7.00;99.90;;;;;;4995046;28;20220;-70
2022/11/21 04:06:14;;;;;;;9.87;2.80;;;7.10;99.90;;;;;;4995038;28;20222;-71
2022/11/21 04:08:42;;;;;;;7.67;2.60;;;7.00;99.90;;;;;;4995022;28;20207;-70
2022/11/21 04:11:08;;;;;;;4.73;2.33;;;7.00;99.90;;;;;;4994840;28;20212;-71
2022/11/21 04:13:34;;;;;;;8.27;3.10;;;6.90;99.90;;;;;;4994354;28;21400;-70
2022/11/21 04:16:00;;;;;;;8.50;3.10;;;6.90;99.90;;;;;;4993959;28;20190;-71
2022/11/21 04:18:26;;;;;;;9.53;2.90;;;6.90;99.90;;;;;;4994672;28;20182;-71
2022/11/21 04:20:59;;;;;;;10.53;3.17;;;6.80;99.90;;;;;;4993320;28;20179;-70
2022/11/21 04:23:25;;;;;;;9.03;2.97;;;6.80;99.90;;;;;;4994483;28;20513;-71
2022/11/21 04:25:50;;;;;;;5.17;2.67;;;6.80;99.90;;;;;;4994568;28;20306;-70
2022/11/21 04:28:16;;;;;;;7.10;3.13;;;6.80;99.90;;;;;;4994114;28;20266;-70
2022/11/21 04:30:42;;;;;;;8.27;3.10;;;6.80;99.90;;;;;;4994411;28;20550;-70
2022/11/21 04:33:08;;;;;;;7.40;3.10;;;6.80;99.90;;;;;;4994473;28;20179;-70
2022/11/21 04:35:34;;;;;;;10.17;3.03;;;6.80;99.90;;;;;;4994324;28;20171;-70
2022/11/21 04:37:59;;;;;;;8.23;3.00;;;6.80;99.90;;;;;;4994050;28;20313;-70
2022/11/21 04:40:25;;;;;;;7.43;3.27;;;6.80;99.90;;;;;;4994011;28;20581;-70
2022/11/21 04:42:50;;;;;;;6.43;3.30;;;6.80;99.90;;;;;;4992649;28;20258;-70
2022/11/21 04:45:16;;;;;;;6.93;3.43;;;6.90;99.90;;;;;;4994125;28;20211;-70
2022/11/21 04:47:45;;;;;;;11.57;3.03;;;6.90;99.90;;;;;;4993912;28;20177;-71
2022/11/21 04:50:18;;;;;;;7.77;3.50;;;6.80;99.90;;;;;;4992717;28;20187;-70
2022/11/21 04:52:51;;;;;;;8.43;3.70;;;6.80;99.90;;;;;;4993839;28;20197;-71
2022/11/21 04:55:17;;;;;;;8.90;3.47;;;6.70;99.90;;;;;;4993308;28;20184;-71
2022/11/21 04:57:43;;;;;;;6.77;3.60;;;6.70;99.90;;;;;;4993201;28;20183;-69
2022/11/21 05:00:09;;;;;;;10.70;3.20;;;6.70;99.90;;;;;;4993741;28;20269;-70
2022/11/21 05:02:35;;;;;;;7.77;3.20;;;6.70;99.90;;;;;;4993803;28;20187;-70
2022/11/21 05:05:00;;;;;;;9.53;3.10;;;6.60;99.90;;;;;;4993431;28;20206;-70
2022/11/21 05:07:26;;;;;;;8.17;3.50;;;6.60;99.90;;;;;;4994132;28;20167;-70
2022/11/21 05:09:52;;;;;;;7.93;3.30;;;6.50;99.90;;;;;;4993263;28;20543;-70
2022/11/21 05:15:01;;;;;;;9.83;3.63;;;6.40;99.90;;;;;;4993462;28;20174;-70
2022/11/21 05:17:28;;;;;;;7.10;3.60;;;6.50;99.90;;;;;;4993619;28;20171;-71
2022/11/21 05:19:53;;;;;;;7.17;3.10;;;6.50;99.90;;;;;;4993736;28;20171;-71
2022/11/21 05:22:19;;;;;;;8.13;3.50;;;6.40;99.90;;;;;;4993080;28;20185;-71
2022/11/21 05:24:45;;;;;;;5.87;3.60;;;6.50;99.90;;;;;;4993525;28;20179;-70
2022/11/21 05:27:10;;;;;;;9.83;3.80;;;6.50;99.90;;;;;;4992861;28;20590;-70
2022/11/21 05:29:36;;;;;;;10.10;3.13;;;6.50;99.90;;;;;;4993401;28;20258;-71
2022/11/21 05:32:02;;;;;;;6.03;3.40;;;6.40;99.90;;;;;;4993265;28;20187;-70
2022/11/21 05:34:27;;;;;;;7.40;3.73;;;6.30;99.90;;;;;;4993027;28;20203;-70
2022/11/21 05:36:59;;;;;;;6.93;3.53;;;6.30;99.90;;;;;;4992896;28;20238;-70
2022/11/21 05:39:25;;;;;;;6.67;3.10;;;6.20;99.90;;;;;;4992993;28;20552;-70
2022/11/21 05:41:52;;;;;;;5.70;2.80;;;6.20;99.90;;;;;;4993055;28;20179;-70
2022/11/21 05:44:18;;;;;;;7.07;2.70;;;6.10;99.90;;;;;;4993082;28;20651;-70
2022/11/21 05:46:44;;;;;;;9.10;3.33;;;6.20;99.90;;;;;;4993371;28;20246;-70
2022/11/21 05:49:10;;;;;;;7.13;3.57;;;6.20;99.90;;;;;;4991526;28;20179;-71
2022/11/21 05:51:36;;;;;;;8.27;3.33;;;6.20;99.90;;;;;;4992624;28;20175;-70
2022/11/21 05:54:02;;;;;;;8.03;3.20;;;6.20;99.90;;;;;;4992977;28;20229;-70
2022/11/21 05:56:27;;;;;;;12.60;3.90;;;6.10;99.90;;;;;;4992811;28;20183;-70
2022/11/21 05:58:58;;;;;;;11.37;3.53;;;6.10;99.90;;;;;;4992587;28;20172;-70
2022/11/21 06:04:09;;;;;;;9.17;3.40;;;6.00;99.90;;;;;;4992939;28;20557;-70
2022/11/21 06:06:35;;;;;;;6.30;3.00;;;6.00;99.90;;;;;;4992733;28;20290;-69
2022/11/21 06:09:04;;;;;;;5.73;2.93;;;5.90;99.90;;;;;;4992549;28;20171;-71
2022/11/21 06:11:30;;;;;;;5.93;3.67;;;5.90;99.90;;;;;;4991915;28;20767;-70
2022/11/21 06:13:55;;;;;;;9.17;3.67;;;5.80;99.90;;;;;;4992255;28;20207;-71
2022/11/21 06:16:24;;;;;;;14.47;3.53;;;5.80;99.90;;;;;;4992234;28;20163;-71
2022/11/21 06:18:51;;;;;;;12.47;3.87;;;5.70;99.90;;;;;;4992679;28;20163;-71
2022/11/21 06:21:19;;;;;;;7.10;3.83;;;5.70;99.90;;;;;;4992221;28;20644;-70
2022/11/21 06:23:46;;;;;;;8.93;3.70;;;5.60;99.90;;;;;;4992054;28;20643;-70
2022/11/21 06:26:15;;;;;;;9.27;3.80;;;5.60;99.90;;;;;;4992042;28;20239;-70
2022/11/21 06:28:42;;;;;;;10.37;3.50;;;5.60;99.90;;;;;;4990995;28;20171;-70
2022/11/21 06:31:09;;;;;;;11.03;3.43;;;5.70;99.90;;;;;;4991993;28;20171;-70
2022/11/21 06:33:36;;;;;;;7.90;3.30;;;5.70;99.90;;;;;;4991589;28;20592;-71
2022/11/21 06:36:06;;;;;;;8.40;3.37;;;5.70;99.90;;;;;;4991920;28;20167;-70
2022/11/21 06:38:33;;;;;;;8.33;3.20;;;5.60;99.90;;;;;;4992183;28;20283;-70
2022/11/21 06:41:04;;;;;;;9.03;3.37;;;5.60;99.90;;;;;;4995043;28;20176;-69
2022/11/21 06:43:29;;;;;;;12.30;3.20;;;5.70;99.90;;;;;;4995351;28;20222;-70
2022/11/21 06:45:55;;;;;;;14.90;3.97;;;5.60;99.90;;;;;;4995568;28;20247;-70
2022/11/21 06:48:24;;;;;;;9.83;3.50;;;5.70;99.90;;;;;;4994293;28;20243;-71
2022/11/21 06:50:50;;;;;;;13.47;4.33;;;5.60;99.90;;;;;;4995114;28;20179;-71
2022/11/21 06:53:16;;;;;;;7.50;3.33;;;5.60;99.90;;;;;;4994778;28;20682;-70
2022/11/21 06:55:41;;;;;;;11.73;3.70;;;5.60;99.90;;;;;;4993793;28;20182;-71
2022/11/21 06:58:07;;;;;;;12.67;4.20;;;5.60;99.90;;;;;;4995150;28;20270;-70
2022/11/21 07:00:35;;;;;;;7.90;3.73;;;5.60;99.90;;;;;;4994181;28;20612;-71
2022/11/21 07:03:02;;;;;;;16.70;5.00;;;5.60;99.90;;;;;;4994559;28;20176;-71
2022/11/21 07:05:28;;;;;;;12.70;4.00;;;5.70;99.90;;;;;;4994345;28;20203;-71
2022/11/21 07:07:58;;;;;;;9.33;4.20;;;5.60;99.90;;;;;;4993878;28;20509;-70
2022/11/21 07:10:24;;;;;;;11.40;4.10;;;5.60;99.90;;;;;;4994650;28;20191;-70
2022/11/21 07:15:35;;;;;;;10.93;4.30;;;5.60;99.90;;;;;;4994469;28;20337;-70
2022/11/21 07:18:03;;;;;;;14.30;4.60;;;5.70;99.90;;;;;;4994477;28;20246;-70
2022/11/21 07:20:29;;;;;;;7.30;3.50;;;5.70;99.90;;;;;;4995061;28;20193;-71
2022/11/21 07:22:55;;;;;;;7.43;4.13;;;5.70;99.90;;;;;;4994522;28;20718;-71
2022/11/21 07:25:21;;;;;;;11.87;4.10;;;5.80;99.90;;;;;;4994144;28;20215;-70
2022/11/21 07:27:50;;;;;;;10.50;3.80;;;5.90;99.90;;;;;;4994186;28;20187;-69
2022/11/21 07:30:15;;;;;;;9.43;4.43;;;5.90;99.90;;;;;;4994068;28;20277;-70
2022/11/21 07:32:41;;;;;;;9.40;3.90;;;6.00;99.90;;;;;;4994079;28;20573;-70
2022/11/21 07:35:07;;;;;;;6.73;3.47;;;6.00;99.90;;;;;;4994180;28;20647;-70
2022/11/21 07:37:38;;;;;;;9.23;3.40;;;6.00;99.90;;;;;;4993929;28;20215;-70
2022/11/21 07:40:04;;;;;;;12.80;4.37;;;6.10;99.90;;;;;;4993039;28;20195;-71
2022/11/21 07:42:35;;;;;;;13.90;4.00;;;6.20;99.90;;;;;;4991574;28;20194;-71
2022/11/21 07:45:03;;;;;;;11.77;3.50;;;6.30;99.90;;;;;;4993663;28;20203;-71
2022/11/21 07:47:29;;;;;;;8.20;3.50;;;6.20;99.90;;;;;;4994251;28;20250;-69
2022/11/21 07:49:57;;;;;;;10.93;5.10;;;6.50;99.90;;;;;;4992600;28;20202;-69
2022/11/21 07:52:24;;;;;;;8.83;4.00;;;7.00;99.90;;;;;;4992500;28;20179;-70
2022/11/21 07:54:52;;;;;;;10.67;4.00;;;7.30;99.90;;;;;;4991558;28;20505;-71
2022/11/21 07:57:18;;;;;;;12.33;4.33;;;7.90;99.90;;;;;;4993648;28;20183;-71
2022/11/21 07:59:44;;;;;;;15.17;4.53;;;8.60;99.90;;;;;;4994410;28;20250;-70
2022/11/21 08:02:24;;;;;;;10.20;4.03;;;9.40;99.90;;;;;;4993281;28;20202;-71
2022/11/21 08:04:50;;;;;;;25.93;12.17;;;10.00;99.90;;;;;;4993417;28;20179;-71
2022/11/21 08:07:18;;;;;;;8.67;4.90;;;10.30;99.90;;;;;;4992699;28;20500;-70
2022/11/21 08:09:43;;;;;;;15.87;8.27;;;10.20;99.90;;;;;;4993361;28;20167;-69
2022/11/21 08:12:09;;;;;;;11.37;5.53;;;10.10;99.90;;;;;;4994077;28;20267;-70
2022/11/21 08:14:35;;;;;;;279.23;191.00;;;9.80;99.90;;;;;;4993468;28;20171;-71
2022/11/21 08:17:01;;;;;;;58.30;37.77;;;9.70;99.90;;;;;;4978863;28;20195;-69
2022/11/21 08:19:27;;;;;;;52.03;39.47;;;10.10;99.90;;;;;;4974195;28;20263;-69
2022/11/21 08:21:52;;;;;;;13.17;5.77;;;10.30;99.90;;;;;;4983779;28;20546;-70
2022/11/21 08:24:18;;;;;;;13.20;5.90;;;10.70;99.90;;;;;;4972591;28;20208;-71
2022/11/21 08:26:44;;;;;;;39.27;27.83;;;10.90;99.90;;;;;;4974491;28;20223;-70
2022/11/21 08:29:11;;;;;;;11.47;5.20;;;10.80;99.90;;;;;;4992269;28;20187;-70
2022/11/21 08:31:38;;;;;;;9.60;4.97;;;10.70;99.90;;;;;;4992902;28;20238;-70
2022/11/21 08:34:03;;;;;;;12.67;7.87;;;10.70;99.90;;;;;;4985811;28;20285;-70
2022/11/21 08:36:32;;;;;;;10.97;5.30;;;10.80;99.90;;;;;;4972953;28;20671;-70
2022/11/21 08:38:57;;;;;;;13.23;4.17;;;11.10;99.90;;;;;;4977908;28;20323;-69
2022/11/21 08:44:11;;;;;;;9.23;4.73;;;11.10;99.90;;;;;;4983376;28;20236;-70
2022/11/21 08:46:36;;;;;;;12.70;5.03;;;11.70;99.90;;;;;;4981671;28;20250;-70
2022/11/21 08:49:11;;;;;;;7.40;3.90;;;11.80;99.90;;;;;;4987021;28;20592;-70
2022/11/21 08:51:36;;;;;;;11.13;8.20;;;11.70;99.90;;;;;;4989410;28;20261;-70
2022/11/21 08:54:05;;;;;;;9.27;5.10;;;11.80;99.90;;;;;;4981513;28;20278;-71
2022/11/21 08:56:30;;;;;;;7.63;3.50;;;11.90;99.90;;;;;;4981526;28;20183;-70
2022/11/21 08:58:56;;;;;;;9.40;3.70;;;11.70;99.90;;;;;;4988747;28;20183;-69
2022/11/21 09:01:22;;;;;;;10.30;3.77;;;11.50;99.90;;;;;;4990728;28;20610;-69
2022/11/21 09:03:50;;;;;;;8.37;3.57;;;11.60;99.90;;;;;;4999244;28;20194;-69
2022/11/21 09:06:16;;;;;;;10.60;6.17;;;11.70;99.90;;;;;;4987764;28;20333;-69
2022/11/21 09:08:42;;;;;;;9.83;4.00;;;11.80;99.90;;;;;;4988566;28;20669;-70
2022/11/21 09:11:11;;;;;;;7.13;2.90;;;12.00;99.90;;;;;;4989782;28;20183;-71
2022/11/21 09:13:37;;;;;;;8.70;3.53;;;12.20;99.90;;;;;;4989730;28;20179;-70
2022/11/21 09:18:47;;;;;;;10.53;3.43;;;12.70;99.90;;;;;;4982728;28;20194;-69
2022/11/21 09:21:17;;;;;;;8.50;3.43;;;12.80;99.90;;;;;;4993844;28;20711;-69
2022/11/21 09:23:43;;;;;;;6.57;3.13;;;13.10;99.90;;;;;;4995510;28;20552;-70
2022/11/21 09:26:09;;;;;;;10.60;3.40;;;13.30;99.90;;;;;;4988619;28;20223;-72
2022/11/21 09:28:35;;;;;;;8.73;3.73;;;13.50;99.90;;;;;;4979598;28;20191;-72
2022/11/21 09:31:02;;;;;;;10.60;6.70;;;14.10;99.90;;;;;;4987614;28;20176;-72
2022/11/21 09:33:27;;;;;;;10.47;3.93;;;14.30;99.90;;;;;;4999511;28;20181;-73
2022/11/21 09:35:53;;;;;;;6.30;3.30;;;14.40;99.90;;;;;;4988388;28;20183;-72
2022/11/21 09:38:26;;;;;;;5.10;3.47;;;14.50;99.90;;;;;;4977014;28;20632;-70
2022/11/21 09:41:50;;;;;;;6.10;3.20;;;14.60;99.90;;;;;;4981181;28;20191;-71
2022/11/21 09:44:09;;;;;;;7.97;4.00;;;14.30;99.90;;;;;;4975155;28;20209;-71
2022/11/21 09:46:43;;;;;;;10.80;5.33;;;14.00;99.90;;;;;;4984682;28;20296;-70
2022/11/21 09:49:11;;;;;;;8.67;2.80;;;13.90;99.90;;;;;;4988504;28;20229;-69
2022/11/21 09:51:38;;;;;;;6.47;3.40;;;13.70;99.90;;;;;;4987776;28;20200;-69
2022/11/21 09:54:15;;;;;;;6.85;3.45;;;14.30;99.90;;;;;;4983492;28;20175;-70
2022/11/21 09:56:45;;;;;;;6.97;3.00;;;15.10;99.90;;;;;;4979866;28;20184;-70
2022/11/21 09:59:20;;;;;;;5.28;3.47;;;15.60;98.40;;;;;;4986375;28;20694;-73
2022/11/21 10:01:46;;;;;;;5.45;3.33;;;15.40;98.00;;;;;;4990726;28;20340;-71
2022/11/21 10:04:12;;;;;;;13.40;9.47;;;14.70;98.80;;;;;;4983490;28;20270;-70
2022/11/21 10:06:57;;;;;;;10.83;6.60;;;13.60;99.90;;;;;;4993880;28;20701;-71
2022/11/21 10:09:47;;;;;;;10.17;7.57;;;13.00;99.90;;;;;;4975556;28;20171;-70
2022/11/21 10:12:36;;;;;;;11.10;8.53;;;12.00;99.90;;;;;;4989284;28;20184;-69
2022/11/21 10:15:18;;;;;;;26.43;22.00;;;11.30;99.90;;;;;;5002918;28;20176;-70
2022/11/21 10:17:51;;;;;;;6.47;4.80;;;10.40;99.90;;;;;;4995347;28;20178;-70
2022/11/21 10:20:42;;;;;;;18.37;6.10;;;10.00;99.90;;;;;;5005158;28;20515;-70
2022/11/21 10:23:14;;;;;;;12.67;6.47;;;10.00;99.90;;;;;;4992626;28;20195;-68
2022/11/21 10:25:47;;;;;;;19.00;13.73;;;9.80;99.90;;;;;;5005310;28;20195;-70
2022/11/21 10:28:19;;;;;;;16.10;8.90;;;9.60;99.90;;;;;;5003827;28;20237;-71
2022/11/21 10:30:46;;;;;;;16.87;7.23;;;9.50;99.90;;;;;;4985116;28;20191;-72
2022/11/21 10:33:19;;;;;;;17.37;11.93;;;9.40;99.90;;;;;;4990105;28;20184;-72
2022/11/21 10:35:50;;;;;;;23.13;19.20;;;9.30;99.90;;;;;;4999053;28;20182;-70
2022/11/21 10:38:24;;;;;;;14.07;7.33;;;9.10;99.90;;;;;;4992899;28;20229;-71
2022/11/21 10:40:51;;;;;;;16.57;7.33;;;9.00;99.90;;;;;;4983262;28;20196;-71
2022/11/21 10:46:14;;;;;;;16.73;7.33;;;8.60;99.90;;;;;;4986712;28;20578;-71
2022/11/21 10:48:40;;;;;;;11.33;8.03;;;8.60;99.90;;;;;;4996846;28;20208;-70
2022/11/21 10:51:12;;;;;;;15.70;8.47;;;8.70;99.90;;;;;;4982888;28;20195;-70
2022/11/21 10:56:25;;;;;;;25.40;16.57;;;9.20;99.90;;;;;;4992624;28;20816;-71
2022/11/21 10:58:52;;;;;;;16.50;7.90;;;9.40;99.90;;;;;;4978646;28;20194;-72
2022/11/21 11:01:24;;;;;;;19.40;13.50;;;9.50;99.90;;;;;;4981030;28;20195;-71
2022/11/21 11:04:08;;;;;;;23.27;17.13;;;9.50;99.90;;;;;;4981469;28;20227;-72
2022/11/21 11:06:38;;;;;;;16.37;8.07;;;9.50;99.90;;;;;;4974960;28;20220;-71
2022/11/21 11:09:20;;;;;;;14.43;7.50;;;9.60;99.90;;;;;;4982657;28;20187;-70
2022/11/21 11:11:46;;;;;;;12.37;8.00;;;9.60;99.90;;;;;;4993228;28;20659;-70
2022/11/21 11:14:13;;;;;;;13.90;6.43;;;9.70;99.90;;;;;;4976731;28;20215;-71
2022/11/21 11:16:44;;;;;;;56.53;42.10;;;9.70;99.90;;;;;;4980546;28;20190;-69
2022/11/21 11:19:27;;;;;;;32.23;21.17;;;9.90;99.90;;;;;;4988401;28;20476;-70
2022/11/21 11:21:55;;;;;;;10.07;6.17;;;10.00;99.90;;;;;;4975424;28;20207;-70
2022/11/21 11:24:26;;;;;;;15.23;7.63;;;10.10;99.90;;;;;;4992523;28;20177;-70
2022/11/21 11:27:04;;;;;;;13.00;6.60;;;10.10;99.90;;;;;;4993593;28;20223;-70
2022/11/21 11:29:34;;;;;;;14.30;6.77;;;10.00;99.90;;;;;;4994007;28;20201;-70
2022/11/21 11:32:13;;;;;;;18.80;11.87;;;9.90;99.90;;;;;;4993750;28;20273;-71
2022/11/21 11:35:01;;;;;;;14.63;6.27;;;9.90;99.90;;;;;;4994619;28;20623;-70
2022/11/21 11:37:46;;;;;;;10.47;5.90;;;9.90;99.90;;;;;;4985336;28;20310;-70
2022/11/21 11:40:34;;;;;;;12.63;7.00;;;9.60;99.90;;;;;;4987425;28;20199;-70
2022/11/21 11:50:10;;;;;;;18.73;10.13;;;9.70;99.90;;;;;;4977910;28;20198;-71
2022/11/21 11:52:23;;;;;;;15.27;7.73;;;9.90;99.90;;;;;;4982544;28;20195;-71
2022/11/21 11:54:54;;;;;;;22.43;18.13;;;9.80;99.90;;;;;;4980585;28;20218;-71
2022/11/21 11:57:24;;;;;;;21.17;18.67;;;9.80;99.90;;;;;;4974757;28;20198;-71
2022/11/21 12:00:35;;;;;;;24.33;18.40;;;9.80;99.90;;;;;;4981417;28;20557;-72
2022/11/21 12:03:15;;;;;;;21.47;12.30;;;9.80;99.90;;;;;;4956855;28;20552;-70
2022/11/21 12:05:59;;;;;;;16.33;8.43;;;9.70;99.90;;;;;;4984281;28;20211;-70
2022/11/21 12:08:37;;;;;;;27.80;17.03;;;9.70;99.90;;;;;;4973919;28;20180;-70
2022/11/21 12:14:12;;;;;;;13.67;6.70;;;9.70;99.90;;;;;;4978732;28;20279;-71
2022/11/21 12:16:40;;;;;;;17.93;9.93;;;9.70;99.90;;;;;;4987834;28;20202;-70
2022/11/21 12:19:13;;;;;;;16.10;6.13;;;9.70;99.90;;;;;;4979841;28;20294;-70
2022/11/21 12:21:38;;;;;;;17.00;12.40;;;9.80;99.90;;;;;;4981804;28;20183;-71
2022/11/21 12:24:07;;;;;;;9.80;5.67;;;9.90;99.90;;;;;;4975519;28;20195;-71
2022/11/21 12:26:46;;;;;;;15.97;5.50;;;10.00;99.90;;;;;;4978524;28;20318;-70
2022/11/21 12:29:49;;;;;;;12.63;5.40;;;10.00;99.90;;;;;;4986281;28;20171;-71
2022/11/21 12:32:37;;;;;;;12.30;5.43;;;9.90;99.90;;;;;;4983444;28;20176;-71
2022/11/21 12:35:34;;;;;;;13.07;5.57;;;10.00;99.90;;;;;;4981735;28;20643;-71
2022/11/21 12:38:28;;;;;;;17.70;9.33;;;10.00;99.90;;;;;;4981236;28;20258;-70
2022/11/21 12:44:48;;;;;;;14.43;5.87;;;10.00;99.90;;;;;;4985837;28;20684;-70
2022/11/21 12:47:22;;;;;;;11.77;5.33;;;10.10;99.90;;;;;;4975599;28;20198;-70
2022/11/21 12:56:42;;;;;;;14.47;8.83;;;9.90;99.90;;;;;;4972514;28;20572;-70
2022/11/21 12:59:13;;;;;;;14.63;8.37;;;10.10;99.90;;;;;;4980691;28;20666;-72
2022/11/21 13:02:01;;;;;;;13.60;6.83;;;10.20;99.90;;;;;;4984392;28;20232;-71
2022/11/21 13:04:35;;;;;;;9.20;7.70;;;10.20;99.90;;;;;;4974360;28;20270;-72
2022/11/21 13:07:02;;;;;;;12.43;6.50;;;10.20;99.90;;;;;;4990659;28;20199;-71
2022/11/21 13:09:32;;;;;;;22.10;19.57;;;10.30;99.90;;;;;;4985892;28;20204;-72
2022/11/21 13:11:57;;;;;;;14.83;6.10;;;10.30;99.90;;;;;;4969685;28;20226;-71
2022/11/21 13:14:38;;;;;;;13.97;5.50;;;10.20;99.90;;;;;;4982461;28;20215;-71
2022/11/21 13:17:34;;;;;;;14.47;11.00;;;10.20;99.90;;;;;;4984069;28;20588;-71
2022/11/21 13:20:31;;;;;;;10.13;6.03;;;10.20;99.90;;;;;;4990834;28;20187;-70
2022/11/21 13:23:05;;;;;;;21.30;12.87;;;10.20;99.90;;;;;;4972625;28;20167;-71
2022/11/21 13:25:33;;;;;;;9.77;6.37;;;10.20;99.90;;;;;;4987183;28;20301;-72
2022/11/21 13:28:17;;;;;;;6.47;4.10;;;10.20;99.90;;;;;;4996431;28;20197;-69
2022/11/21 13:31:04;;;;;;;6.50;4.13;;;10.20;99.90;;;;;;4995469;28;20171;-71
2022/11/21 13:33:45;;;;;;;8.13;4.43;;;10.10;99.90;;;;;;4979527;28;20231;-71
2022/11/21 13:36:35;;;;;;;11.93;4.40;;;10.00;99.90;;;;;;4992528;28;20166;-70
2022/11/21 13:39:01;;;;;;;7.50;4.27;;;10.00;99.90;;;;;;4991438;28;20191;-71
2022/11/21 13:44:29;;;;;;;8.50;4.10;;;9.90;99.90;;;;;;4985932;28;20799;-70